Time;durP1;ratioP1;P1;durP2;ratioP2;P2;SDS_P1;SDS_P2;PMS_P1;PMS_P2;Temp;Humidity;BMP_temperature;BMP_pressure;BME280_temperature;BME280_humidity;BME280_pressure;Samples;Min_cycle;Max_cycle;Signal;HPM_P1;HPM_P2
2022/01/04 00:02:29;;;;;;;0.20;0.20;;;;;;;5.82;100.00;99332.63;5048295;28;20055;-79
2022/01/04 00:05:02;;;;;;;0.20;0.20;;;;;;;5.73;100.00;99303.53;5046239;28;20032;-79
2022/01/04 00:07:30;;;;;;;0.30;0.30;;;;;;;5.87;100.00;99317.19;5046635;28;20041;-80
2022/01/04 00:10:04;;;;;;;0.20;0.20;;;;;;;5.81;100.00;99315.59;5043287;28;20076;-77
2022/01/04 00:15:30;;;;;;;0.20;0.20;;;;;;;5.84;100.00;99316.94;5043982;28;20048;-78
2022/01/04 00:18:04;;;;;;;0.20;0.20;;;;;;;5.82;100.00;99311.81;5053205;28;20354;-80
2022/01/04 00:20:37;;;;;;;0.20;0.20;;;;;;;5.87;100.00;99302.88;5049796;28;20048;-81
2022/01/04 00:23:11;;;;;;;0.20;0.20;;;;;;;5.79;100.00;99298.91;5056290;28;20044;-78
2022/01/04 00:25:39;;;;;;;0.30;0.30;;;;;;;5.75;100.00;99293.25;5048768;28;20045;-79
2022/01/04 00:28:14;;;;;;;0.30;0.30;;;;;;;5.78;100.00;99297.28;5050082;28;20512;-79
2022/01/04 00:30:47;;;;;;;0.20;0.20;;;;;;;5.76;100.00;99286.75;5060726;28;20060;-79
2022/01/04 00:33:20;;;;;;;0.30;0.30;;;;;;;5.74;100.00;99290.81;5050053;28;20056;-79
2022/01/04 00:35:53;;;;;;;0.20;0.20;;;;;;;5.76;100.00;99291.38;5048807;28;20052;-78
2022/01/04 00:38:21;;;;;;;0.20;0.20;;;;;;;5.78;100.00;99281.88;5047126;28;20056;-79
2022/01/04 00:40:50;;;;;;;0.20;0.20;;;;;;;5.73;100.00;99283.81;5053083;28;20071;-79
2022/01/04 00:43:19;;;;;;;0.22;0.22;;;;;;;5.75;100.00;99285.13;5055517;28;20053;-80
2022/01/04 00:45:53;;;;;;;0.20;0.20;;;;;;;5.73;100.00;99267.59;5038231;28;20049;-79
2022/01/04 00:51:17;;;;;;;0.25;0.25;;;;;;;5.63;100.00;99265.81;5040380;28;20061;-79
2022/01/04 00:53:45;;;;;;;0.20;0.20;;;;;;;5.54;100.00;99257.50;5049762;28;20049;-79
2022/01/04 00:56:18;;;;;;;0.20;0.20;;;;;;;5.62;100.00;99256.09;5046972;28;20064;-79
2022/01/04 00:58:53;;;;;;;0.22;0.22;;;;;;;5.73;100.00;99244.13;5049733;28;20603;-79
2022/01/04 01:01:26;;;;;;;0.20;0.20;;;;;;;5.71;100.00;99242.81;5054628;28;20067;-79
2022/01/04 01:04:00;;;;;;;0.20;0.20;;;;;;;5.69;100.00;99251.19;5052082;28;20047;-80
2022/01/04 01:06:28;;;;;;;0.20;0.20;;;;;;;5.68;100.00;99235.28;5047548;28;20064;-78
2022/01/04 01:09:02;;;;;;;0.22;0.22;;;;;;;5.72;100.00;99236.31;5044420;28;20037;-78
2022/01/04 01:11:35;;;;;;;0.20;0.20;;;;;;;5.70;100.00;99235.78;5048623;28;20052;-79
2022/01/04 01:14:04;;;;;;;0.20;0.20;;;;;;;5.73;100.00;99232.53;5051319;28;20053;-79
2022/01/04 01:16:33;;;;;;;0.20;0.20;;;;;;;5.72;100.00;99226.31;5048062;28;20045;-79
2022/01/04 01:19:06;;;;;;;0.28;0.28;;;;;;;5.75;100.00;99227.66;5055131;28;20072;-77
2022/01/04 01:21:39;;;;;;;0.28;0.28;;;;;;;5.64;100.00;99213.44;5046779;28;20064;-79
2022/01/04 01:24:09;;;;;;;0.20;0.20;;;;;;;5.68;100.00;99219.88;5047068;28;20048;-79
2022/01/04 01:26:37;;;;;;;0.28;0.28;;;;;;;5.53;100.00;99209.22;5037857;28;20056;-80
2022/01/04 01:29:06;;;;;;;0.20;0.20;;;;;;;5.53;100.00;99210.00;5043396;28;20045;-79
2022/01/04 01:31:39;;;;;;;0.30;0.30;;;;;;;5.47;100.00;99200.38;5044246;28;20500;-79
2022/01/04 01:34:13;;;;;;;0.20;0.20;;;;;;;5.54;100.00;99202.75;5059589;28;20078;-77
2022/01/04 01:36:41;;;;;;;0.20;0.20;;;;;;;5.65;100.00;99211.53;5048891;28;20048;-79
2022/01/04 01:39:14;;;;;;;0.20;0.20;;;;;;;5.64;100.00;99196.44;5050506;28;20055;-81
2022/01/04 01:41:47;;;;;;;0.13;0.10;;;;;;;5.64;100.00;99208.03;5052802;28;20044;-78
2022/01/04 01:44:17;;;;;;;0.08;0.08;;;;;;;5.70;100.00;99198.78;5045646;28;20053;-76
2022/01/04 01:46:50;;;;;;;0.10;0.10;;;;;;;5.67;100.00;99193.97;5048638;28;20033;-79
2022/01/04 01:49:18;;;;;;;0.10;0.10;;;;;;;5.62;100.00;99192.13;5041315;28;20053;-80
2022/01/04 01:51:48;;;;;;;0.10;0.10;;;;;;;5.61;100.00;99187.03;5048834;28;20049;-79
2022/01/04 01:54:21;;;;;;;0.10;0.10;;;;;;;5.64;100.00;99182.97;5045988;28;20049;-79
2022/01/04 01:56:49;;;;;;;0.20;0.20;;;;;;;5.69;100.00;99181.00;5052169;28;20044;-80
2022/01/04 01:59:19;;;;;;;0.20;0.20;;;;;;;5.75;100.00;99184.47;5042221;28;20054;-78
2022/01/04 02:01:47;;;;;;;0.20;0.20;;;;;;;5.72;100.00;99180.44;5046062;28;20052;-80
2022/01/04 02:04:20;;;;;;;0.20;0.20;;;;;;;5.70;100.00;99174.50;5046471;28;20500;-79
2022/01/04 02:06:54;;;;;;;0.20;0.20;;;;;;;5.69;100.00;99172.09;5046039;28;20512;-78
2022/01/04 02:09:27;;;;;;;0.20;0.20;;;;;;;5.71;100.00;99178.03;5053735;28;20047;-79
2022/01/04 02:12:01;;;;;;;0.20;0.20;;;;;;;5.72;100.00;99168.84;5064029;28;20049;-80
2022/01/04 02:14:36;;;;;;;0.20;0.20;;;;;;;5.71;100.00;99157.22;5038897;28;20049;-80
2022/01/04 02:17:05;;;;;;;0.30;0.30;;;;;;;5.70;100.00;99161.00;5045731;28;20389;-80
2022/01/04 02:19:39;;;;;;;0.22;0.22;;;;;;;5.72;100.00;99158.84;5056875;28;20492;-79
2022/01/04 02:22:12;;;;;;;0.20;0.20;;;;;;;5.73;100.00;99159.63;5049542;28;20044;-79
2022/01/04 02:24:46;;;;;;;0.20;0.20;;;;;;;5.77;100.00;99153.41;5042505;28;20417;-80
2022/01/04 02:27:19;;;;;;;0.20;0.20;;;;;;;5.76;100.00;99153.69;5045490;28;20067;-80
2022/01/04 02:29:53;;;;;;;0.28;0.28;;;;;;;5.71;100.00;99154.53;5048994;28;20490;-80
2022/01/04 02:32:26;;;;;;;0.20;0.20;;;;;;;5.75;100.00;99154.78;5043115;28;20052;-80
2022/01/04 02:35:01;;;;;;;0.20;0.20;;;;;;;5.73;100.00;99152.38;5042102;28;20056;-79
2022/01/04 02:37:30;;;;;;;0.25;0.25;;;;;;;5.78;100.00;99144.19;5048408;28;20052;-80
2022/01/04 02:40:05;;;;;;;0.20;0.20;;;;;;;5.81;100.00;99139.31;5042632;28;20722;-79
2022/01/04 02:42:38;;;;;;;0.20;0.20;;;;;;;5.82;100.00;99133.63;5049949;28;20111;-80
2022/01/04 02:45:12;;;;;;;0.20;0.20;;;;;;;5.88;100.00;99132.50;5045870;28;20052;-80
2022/01/04 02:47:45;;;;;;;0.25;0.25;;;;;;;5.89;100.00;99127.91;5042237;28;20056;-79
2022/01/04 02:50:20;;;;;;;0.20;0.20;;;;;;;5.88;100.00;99126.28;5039532;28;20060;-79
2022/01/04 02:52:53;;;;;;;0.20;0.20;;;;;;;5.82;100.00;99124.75;5039029;28;20040;-79
2022/01/04 02:55:26;;;;;;;0.20;0.20;;;;;;;5.79;100.00;99120.72;5043798;28;20417;-80
2022/01/04 02:57:54;;;;;;;0.20;0.20;;;;;;;5.76;100.00;99116.69;5045977;28;20061;-80
2022/01/04 03:00:28;;;;;;;0.20;0.20;;;;;;;5.76;100.00;99122.09;5047749;28;20400;-79
2022/01/04 03:03:01;;;;;;;0.20;0.20;;;;;;;5.83;100.00;99110.97;5045406;28;20046;-79
2022/01/04 03:05:31;;;;;;;0.20;0.20;;;;;;;5.78;100.00;99106.41;5045222;28;20053;-78
2022/01/04 03:07:59;;;;;;;0.20;0.20;;;;;;;5.75;100.00;99098.09;5040194;28;20049;-80
2022/01/04 03:10:27;;;;;;;0.30;0.30;;;;;;;5.74;100.00;99096.47;5047854;28;20374;-79
2022/01/04 03:12:57;;;;;;;0.20;0.20;;;;;;;5.70;100.00;99098.94;5039777;28;20494;-79
2022/01/04 03:15:25;;;;;;;0.30;0.30;;;;;;;5.72;100.00;99099.47;5041548;28;20052;-79
2022/01/04 03:17:58;;;;;;;0.20;0.20;;;;;;;5.72;100.00;99093.28;5044757;28;20045;-79
2022/01/04 03:20:33;;;;;;;0.20;0.20;;;;;;;5.86;100.00;99096.88;5048024;28;20044;-81
2022/01/04 03:23:09;;;;;;;0.20;0.20;;;;;;;5.82;100.00;99076.16;5040687;28;20052;-80
2022/01/04 03:25:42;;;;;;;0.20;0.20;;;;;;;5.83;100.00;99073.16;5047147;28;20045;-79
2022/01/04 03:28:12;;;;;;;0.20;0.20;;;;;;;5.88;100.00;99077.69;5044420;28;20052;-79
2022/01/04 03:30:45;;;;;;;0.20;0.20;;;;;;;5.88;100.00;99069.59;5043104;28;20060;-79
2022/01/04 03:33:18;;;;;;;0.20;0.20;;;;;;;5.98;100.00;99061.41;5043664;28;20097;-78
2022/01/04 03:35:53;;;;;;;0.20;0.20;;;;;;;5.91;100.00;99050.94;5049786;28;20033;-79
2022/01/04 03:38:26;;;;;;;0.22;0.22;;;;;;;5.89;100.00;99047.69;5044249;28;20493;-79
2022/01/04 03:40:59;;;;;;;0.20;0.20;;;;;;;5.92;100.00;99043.63;5047876;28;20047;-79
2022/01/04 03:43:28;;;;;;;0.20;0.20;;;;;;;5.89;100.00;99038.81;5044312;28;20057;-79
2022/01/04 03:46:01;;;;;;;0.20;0.20;;;;;;;5.92;100.00;99041.75;5043947;28;20072;-80
2022/01/04 03:48:35;;;;;;;0.20;0.20;;;;;;;5.97;100.00;99035.47;5041771;28;20058;-80
2022/01/04 03:51:10;;;;;;;0.20;0.20;;;;;;;5.90;100.00;99030.41;5046886;28;20158;-80
2022/01/04 03:53:38;;;;;;;0.20;0.20;;;;;;;5.96;100.00;99023.84;5048280;28;20373;-79
2022/01/04 03:56:12;;;;;;;0.20;0.20;;;;;;;6.00;100.00;99028.72;5047317;28;20501;-80
2022/01/04 03:58:45;;;;;;;0.10;0.10;;;;;;;5.98;100.00;99022.78;5043518;28;20045;-79
2022/01/04 04:01:18;;;;;;;0.20;0.20;;;;;;;6.01;100.00;99028.41;5048445;28;20041;-80
2022/01/04 04:03:47;;;;;;;0.30;0.30;;;;;;;5.95;100.00;99030.34;5064552;28;20052;-80
2022/01/04 04:06:22;;;;;;;0.20;0.20;;;;;;;5.98;100.00;99025.50;5049181;28;20521;-80
2022/01/04 04:08:56;;;;;;;0.20;0.20;;;;;;;5.95;100.00;99011.47;5064631;28;20049;-79
2022/01/04 04:11:25;;;;;;;0.20;0.20;;;;;;;6.02;100.00;98999.50;5051190;28;20057;-81
2022/01/04 04:13:58;;;;;;;0.20;0.20;;;;;;;6.03;100.00;98988.41;5049083;28;20056;-79
2022/01/04 04:16:33;;;;;;;0.20;0.20;;;;;;;6.04;100.00;98998.13;5050535;28;20049;-79
2022/01/04 04:19:06;;;;;;;0.20;0.20;;;;;;;6.11;100.00;99001.25;5042923;28;20045;-79
2022/01/04 04:21:40;;;;;;;0.20;0.20;;;;;;;5.99;100.00;98992.78;5048969;28;20064;-79
2022/01/04 04:24:13;;;;;;;0.20;0.20;;;;;;;5.92;100.00;98993.16;5043690;28;20033;-80
2022/01/04 04:26:47;;;;;;;0.30;0.30;;;;;;;5.91;100.00;98983.44;5050408;28;20049;-79
2022/01/04 04:29:15;;;;;;;0.20;0.20;;;;;;;5.92;100.00;98968.84;5051728;28;20053;-80
2022/01/04 04:31:48;;;;;;;0.20;0.20;;;;;;;5.89;100.00;98968.59;5044760;28;20045;-79
2022/01/04 04:34:21;;;;;;;0.20;0.20;;;;;;;5.76;100.00;98973.63;5048828;28;20048;-80
2022/01/04 04:36:56;;;;;;;0.30;0.30;;;;;;;5.83;100.00;98967.88;5047664;28;20057;-79
2022/01/04 04:39:30;;;;;;;0.20;0.20;;;;;;;5.83;100.00;98970.56;5044144;28;20045;-79
2022/01/04 04:42:04;;;;;;;0.20;0.20;;;;;;;5.85;100.00;98959.50;5047669;28;20049;-79
2022/01/04 04:44:32;;;;;;;0.20;0.20;;;;;;;5.86;100.00;98961.88;5053493;28;20496;-79
2022/01/04 04:47:05;;;;;;;0.20;0.20;;;;;;;5.85;100.00;98965.69;5050656;28;20045;-79
2022/01/04 04:49:38;;;;;;;0.10;0.10;;;;;;;5.88;100.00;98967.81;5047454;28;20056;-80
2022/01/04 04:52:08;;;;;;;0.20;0.20;;;;;;;5.86;100.00;98959.19;5048826;28;20056;-79
2022/01/04 04:54:42;;;;;;;0.20;0.20;;;;;;;5.95;100.00;98959.34;5039929;28;20053;-80
2022/01/04 04:57:15;;;;;;;0.20;0.20;;;;;;;5.89;100.00;98953.19;5038862;28;20045;-81
2022/01/04 04:59:43;;;;;;;0.20;0.20;;;;;;;5.90;100.00;98940.53;5048166;28;20052;-80
2022/01/04 05:02:17;;;;;;;0.20;0.20;;;;;;;5.88;100.00;98948.09;5043442;28;20041;-79
2022/01/04 05:04:50;;;;;;;0.20;0.20;;;;;;;5.82;100.00;98931.16;5037097;28;20052;-81
2022/01/04 05:07:26;;;;;;;0.17;0.17;;;;;;;5.94;100.00;98931.53;5049199;28;20052;-82
2022/01/04 05:09:59;;;;;;;0.20;0.20;;;;;;;5.96;100.00;98928.53;5044915;28;20489;-79
2022/01/04 05:12:32;;;;;;;0.30;0.30;;;;;;;5.94;100.00;98923.44;5044713;28;20036;-79
2022/01/04 05:15:06;;;;;;;0.30;0.30;;;;;;;6.00;100.00;98916.09;5047168;28;20044;-80
2022/01/04 05:17:39;;;;;;;0.25;0.20;;;;;;;5.84;100.00;98926.31;5038114;28;20056;-79
2022/01/04 05:20:12;;;;;;;0.20;0.20;;;;;;;5.85;100.00;98919.00;5039375;28;20046;-80
2022/01/04 05:22:47;;;;;;;0.20;0.20;;;;;;;5.85;100.00;98914.38;5041261;28;20059;-80
2022/01/04 05:25:20;;;;;;;0.20;0.20;;;;;;;5.85;100.00;98903.59;5044545;28;20054;-80
2022/01/04 05:27:48;;;;;;;0.20;0.20;;;;;;;5.83;100.00;98907.66;5040980;28;20056;-79
2022/01/04 05:30:21;;;;;;;0.20;0.20;;;;;;;5.93;100.00;98899.44;5044808;28;20041;-80
2022/01/04 05:32:50;;;;;;;0.20;0.20;;;;;;;5.83;100.00;98888.78;5044509;28;20441;-80
2022/01/04 05:35:23;;;;;;;0.30;0.30;;;;;;;5.86;100.00;98891.69;5050748;28;20044;-80
2022/01/04 05:37:58;;;;;;;0.25;0.25;;;;;;;5.81;100.00;98891.75;5042045;28;20385;-80
2022/01/04 05:40:31;;;;;;;0.20;0.20;;;;;;;5.91;100.00;98875.44;5045200;28;20049;-79
2022/01/04 05:43:04;;;;;;;0.20;0.20;;;;;;;5.82;100.00;98876.38;5043380;28;20404;-81
2022/01/04 05:45:37;;;;;;;0.20;0.20;;;;;;;5.76;100.00;98870.28;5041950;28;20045;-79
2022/01/04 05:48:10;;;;;;;0.25;0.25;;;;;;;5.75;100.00;98872.16;5041069;28;20046;-80
2022/01/04 05:50:44;;;;;;;0.20;0.20;;;;;;;5.77;100.00;98867.28;5037322;28;20053;-81
2022/01/04 05:53:18;;;;;;;0.30;0.30;;;;;;;5.77;100.00;98866.44;5045270;28;20049;-79
2022/01/04 05:55:51;;;;;;;0.20;0.20;;;;;;;5.83;100.00;98864.47;5038656;28;20387;-79
2022/01/04 05:58:25;;;;;;;0.30;0.30;;;;;;;5.85;100.00;98878.50;5051372;28;20052;-80
2022/01/04 06:00:58;;;;;;;0.20;0.20;;;;;;;5.84;100.00;98868.78;5045042;28;20056;-79
2022/01/04 06:03:31;;;;;;;0.20;0.20;;;;;;;5.83;100.00;98876.09;5049109;28;20049;-79
2022/01/04 06:06:04;;;;;;;0.20;0.20;;;;;;;5.93;100.00;98880.53;5041818;28;20041;-79
2022/01/04 06:08:39;;;;;;;0.22;0.22;;;;;;;6.01;100.00;98868.28;5050786;28;20059;-80
2022/01/04 06:11:29;;;;;;;0.20;0.20;;;;;;;5.90;100.00;98873.03;5038038;28;20033;-79
2022/01/04 06:16:48;;;;;;;0.20;0.20;;;;;;;5.84;100.00;98868.78;5037282;28;20496;-81
2022/01/04 06:19:17;;;;;;;0.20;0.20;;;;;;;5.87;100.00;98863.63;5042345;28;20045;-80
2022/01/04 06:21:50;;;;;;;0.30;0.30;;;;;;;5.81;100.00;98848.56;5045102;28;20044;-79
2022/01/04 06:24:25;;;;;;;0.20;0.20;;;;;;;5.80;100.00;98844.28;5046870;28;20046;-79
2022/01/04 06:26:58;;;;;;;0.20;0.20;;;;;;;5.83;100.00;98838.31;5048333;28;20052;-80
2022/01/04 06:29:32;;;;;;;0.20;0.20;;;;;;;5.85;100.00;98838.00;5047638;28;20045;-79
2022/01/04 06:32:06;;;;;;;0.10;0.10;;;;;;;5.89;100.00;98847.13;5041499;28;20049;-79
2022/01/04 06:34:41;;;;;;;0.20;0.20;;;;;;;5.84;100.00;98839.09;5049356;28;20045;-79
2022/01/04 06:37:15;;;;;;;0.20;0.20;;;;;;;5.90;100.00;98830.63;5046984;28;20052;-79
2022/01/04 06:39:50;;;;;;;0.20;0.20;;;;;;;5.90;100.00;98833.31;5050805;28;20033;-79
2022/01/04 06:42:23;;;;;;;0.10;0.10;;;;;;;5.95;100.00;98825.16;5044870;28;20072;-79
2022/01/04 06:44:56;;;;;;;0.20;0.20;;;;;;;5.88;100.00;98827.44;5045393;28;20056;-79
2022/01/04 06:47:29;;;;;;;0.20;0.20;;;;;;;5.88;100.00;98826.59;5037650;28;20056;-80
2022/01/04 06:50:03;;;;;;;0.20;0.20;;;;;;;5.91;100.00;98810.63;5045456;28;20517;-79
2022/01/04 06:52:36;;;;;;;0.17;0.17;;;;;;;5.84;100.00;98804.00;5041439;28;20053;-79
2022/01/04 06:55:11;;;;;;;0.17;0.17;;;;;;;5.88;100.00;98832.00;5046224;28;20044;-80
2022/01/04 06:57:44;;;;;;;0.20;0.20;;;;;;;5.82;100.00;98817.78;5040014;28;20497;-80
2022/01/04 07:00:18;;;;;;;0.20;0.20;;;;;;;5.93;100.00;98831.94;5042579;28;20037;-79
2022/01/04 07:02:51;;;;;;;0.22;0.22;;;;;;;5.93;100.00;98832.72;5061653;28;20052;-79
2022/01/04 07:05:20;;;;;;;0.30;0.30;;;;;;;5.94;100.00;98822.75;5043666;28;20425;-80
2022/01/04 07:07:48;;;;;;;0.20;0.20;;;;;;;5.92;100.00;98823.03;5045375;28;20483;-79
2022/01/04 07:10:22;;;;;;;0.10;0.10;;;;;;;5.90;100.00;98814.44;5050375;28;20398;-80
2022/01/04 07:12:50;;;;;;;0.30;0.30;;;;;;;5.94;100.00;98820.84;5042286;28;20060;-79
2022/01/04 07:15:23;;;;;;;0.25;0.25;;;;;;;5.93;100.00;98810.34;5058642;28;20057;-79
2022/01/04 07:17:52;;;;;;;0.20;0.20;;;;;;;5.95;100.00;98811.66;5038548;28;20057;-81
2022/01/04 07:20:25;;;;;;;0.20;0.20;;;;;;;5.93;100.00;98803.03;5057901;28;20045;-79
2022/01/04 07:22:58;;;;;;;0.20;0.20;;;;;;;5.94;100.00;98798.44;5046121;28;20048;-80
2022/01/04 07:25:35;;;;;;;0.20;0.20;;;;;;;5.87;100.00;98803.41;5039639;28;20481;-81
2022/01/04 07:28:09;;;;;;;0.20;0.20;;;;;;;5.87;100.00;98792.59;5042057;28;20053;-80
2022/01/04 07:30:37;;;;;;;0.20;0.20;;;;;;;5.89;100.00;98798.53;5043356;28;20041;-80
2022/01/04 07:33:10;;;;;;;0.30;0.30;;;;;;;5.96;100.00;98794.34;5046479;28;20041;-80
2022/01/04 07:35:39;;;;;;;0.30;0.30;;;;;;;5.87;100.00;98796.13;5047041;28;20056;-80
2022/01/04 07:38:12;;;;;;;0.20;0.20;;;;;;;5.96;100.00;98796.25;5050580;28;20052;-81
2022/01/04 07:40:47;;;;;;;0.20;0.20;;;;;;;5.94;100.00;98807.34;5041710;28;20053;-80
2022/01/04 07:43:20;;;;;;;0.20;0.20;;;;;;;6.02;100.00;98808.59;5056870;28;20491;-80
2022/01/04 07:45:53;;;;;;;0.30;0.30;;;;;;;6.01;100.00;98800.78;5040435;28;20045;-80
2022/01/04 07:48:27;;;;;;;0.30;0.30;;;;;;;6.05;100.00;98797.22;5062952;28;20049;-80
2022/01/04 07:51:00;;;;;;;0.22;0.22;;;;;;;6.01;100.00;98790.78;5037138;28;20047;-81
2022/01/04 07:53:29;;;;;;;0.30;0.30;;;;;;;6.08;100.00;98798.53;5044297;28;20061;-81
2022/01/04 07:56:04;;;;;;;0.20;0.20;;;;;;;6.09;100.00;98789.28;5043457;28;20041;-81
2022/01/04 07:58:38;;;;;;;0.20;0.20;;;;;;;6.04;100.00;98797.50;5040693;28;20049;-81
2022/01/04 08:01:06;;;;;;;0.30;0.30;;;;;;;6.02;100.00;98791.59;5041020;28;20052;-80
2022/01/04 08:03:34;;;;;;;0.20;0.20;;;;;;;5.99;100.00;98794.88;5045368;28;20041;-81
2022/01/04 08:06:07;;;;;;;0.20;0.20;;;;;;;6.01;100.00;98782.69;5044016;28;20520;-80
2022/01/04 08:08:40;;;;;;;0.20;0.20;;;;;;;6.06;100.00;98782.63;5041152;28;20044;-80
2022/01/04 08:11:15;;;;;;;0.20;0.20;;;;;;;6.03;100.00;98774.28;5038691;28;20041;-80
2022/01/04 08:13:48;;;;;;;0.20;0.20;;;;;;;6.11;100.00;98766.31;5036894;28;21172;-81
2022/01/04 08:16:21;;;;;;;0.28;0.28;;;;;;;6.05;100.00;98770.19;5037611;28;20045;-81
2022/01/04 08:18:54;;;;;;;0.20;0.20;;;;;;;6.02;100.00;98762.69;5044789;28;20048;-80
2022/01/04 08:21:27;;;;;;;0.20;0.20;;;;;;;6.07;100.00;98769.91;5041167;28;20053;-81
2022/01/04 08:24:01;;;;;;;0.22;0.22;;;;;;;6.06;100.00;98766.41;5037451;28;20057;-80
2022/01/04 08:26:30;;;;;;;0.20;0.20;;;;;;;6.07;100.00;98767.19;5039954;28;20044;-80
2022/01/04 08:29:04;;;;;;;0.30;0.30;;;;;;;6.06;100.00;98763.72;5037190;28;20052;-80
2022/01/04 08:31:37;;;;;;;0.20;0.20;;;;;;;6.11;100.00;98752.00;5039306;28;20400;-80
2022/01/04 08:34:11;;;;;;;0.30;0.30;;;;;;;6.15;100.00;98753.03;5036675;28;20057;-80
2022/01/04 08:36:44;;;;;;;0.30;0.30;;;;;;;6.03;100.00;98742.69;5041474;28;20049;-80
2022/01/04 08:39:14;;;;;;;0.30;0.30;;;;;;;6.03;100.00;98748.09;5043901;28;20045;-82
2022/01/04 08:41:50;;;;;;;0.20;0.20;;;;;;;6.10;100.00;98745.00;5040995;28;20044;-80
2022/01/04 08:44:23;;;;;;;0.20;0.20;;;;;;;6.06;100.00;98738.59;5043395;28;20056;-82
2022/01/04 08:46:57;;;;;;;0.25;0.25;;;;;;;5.99;100.00;98725.47;5043798;28;20472;-80
2022/01/04 08:49:25;;;;;;;0.28;0.28;;;;;;;6.07;100.00;98721.28;5043882;28;20076;-80
2022/01/04 08:51:53;;;;;;;0.20;0.20;;;;;;;6.02;100.00;98724.91;5047402;28;20052;-80
2022/01/04 08:54:26;;;;;;;0.20;0.20;;;;;;;6.09;100.00;98728.00;5049568;28;20048;-80
2022/01/04 08:57:01;;;;;;;0.20;0.20;;;;;;;5.98;100.00;98712.28;5045208;28;20048;-81
2022/01/04 08:59:34;;;;;;;0.30;0.30;;;;;;;6.13;100.00;98709.28;5036939;28;20045;-80
2022/01/04 09:02:08;;;;;;;0.20;0.20;;;;;;;6.04;100.00;98705.69;5046423;28;20049;-80
2022/01/04 09:04:41;;;;;;;0.20;0.20;;;;;;;6.03;100.00;98704.09;5040610;28;20045;-80
2022/01/04 09:07:15;;;;;;;0.20;0.20;;;;;;;6.08;100.00;98709.41;5031223;28;20449;-80
2022/01/04 09:09:43;;;;;;;0.22;0.22;;;;;;;6.00;100.00;98710.88;5039798;28;20060;-79
2022/01/04 09:12:19;;;;;;;0.20;0.20;;;;;;;6.05;100.00;98710.78;5032799;28;20091;-79
2022/01/04 09:14:59;;;;;;;0.30;0.30;;;;;;;6.04;100.00;98705.69;5026584;28;20067;-80
2022/01/04 09:20:23;;;;;;;0.30;0.30;;;;;;;6.07;100.00;98688.88;5031081;28;20052;-80
2022/01/04 09:22:51;;;;;;;0.25;0.25;;;;;;;6.19;100.00;98689.19;5032638;28;20049;-79
2022/01/04 09:25:25;;;;;;;0.30;0.30;;;;;;;6.21;100.00;98673.47;5030975;28;20071;-80
2022/01/04 09:27:54;;;;;;;0.20;0.20;;;;;;;6.06;100.00;98663.78;5034784;28;20052;-79
2022/01/04 09:30:27;;;;;;;0.20;0.20;;;;;;;6.05;100.00;98673.00;5029276;28;20049;-80
2022/01/04 09:33:02;;;;;;;0.25;0.25;;;;;;;6.04;100.00;98670.59;5029892;28;20057;-80
2022/01/04 09:35:31;;;;;;;0.30;0.30;;;;;;;6.03;100.00;98669.78;5027757;28;20056;-80
2022/01/04 09:38:05;;;;;;;0.20;0.20;;;;;;;6.15;100.00;98661.19;5041967;28;20071;-80
2022/01/04 09:40:39;;;;;;;0.25;0.25;;;;;;;6.08;100.00;98661.59;5033644;28;21008;-79
2022/01/04 09:43:09;;;;;;;0.20;0.20;;;;;;;6.10;100.00;98672.91;5034218;28;20476;-80
2022/01/04 09:45:42;;;;;;;0.20;0.20;;;;;;;6.09;100.00;98662.38;5028725;28;20049;-79
2022/01/04 09:48:16;;;;;;;0.20;0.20;;;;;;;6.08;100.00;98669.69;5029975;28;20053;-80
2022/01/04 09:50:44;;;;;;;0.25;0.25;;;;;;;6.13;100.00;98666.06;5030192;28;20048;-80
2022/01/04 09:53:20;;;;;;;0.20;0.20;;;;;;;6.12;100.00;98668.00;5028584;28;20049;-79
2022/01/04 09:55:56;;;;;;;0.30;0.30;;;;;;;6.16;100.00;98670.06;5027053;28;20060;-79
2022/01/04 09:58:32;;;;;;;0.22;0.22;;;;;;;6.16;100.00;98668.19;5025043;28;20504;-79
2022/01/04 10:01:00;;;;;;;0.20;0.20;;;;;;;6.20;100.00;98669.19;5032244;28;20068;-80
2022/01/04 10:03:35;;;;;;;0.20;0.20;;;;;;;6.18;100.00;98674.09;5026175;28;20484;-80
2022/01/04 10:06:09;;;;;;;0.20;0.20;;;;;;;6.27;100.00;98676.88;5025136;28;20059;-79
2022/01/04 10:08:50;;;;;;;0.22;0.22;;;;;;;6.18;100.00;98671.38;5023633;28;20053;-80
2022/01/04 10:11:30;;;;;;;0.30;0.30;;;;;;;6.26;100.00;98678.00;5029834;28;20057;-79
2022/01/04 10:14:25;;;;;;;0.20;0.20;;;;;;;6.34;100.00;98658.38;5029879;28;20052;-80
2022/01/04 10:16:54;;;;;;;0.25;0.25;;;;;;;6.29;100.00;98656.56;5026498;28;20049;-79
2022/01/04 10:19:30;;;;;;;0.20;0.20;;;;;;;6.30;100.00;98668.19;5024795;28;20401;-81
2022/01/04 10:22:13;;;;;;;0.30;0.30;;;;;;;6.36;100.00;98655.38;5023280;28;20049;-80
2022/01/04 10:24:48;;;;;;;0.20;0.20;;;;;;;6.37;100.00;98657.00;5026143;28;20059;-80
2022/01/04 10:27:28;;;;;;;0.15;0.15;;;;;;;6.46;100.00;98653.28;5027682;28;20056;-80
2022/01/04 10:30:20;;;;;;;0.20;0.20;;;;;;;6.45;100.00;98658.97;5027617;28;20052;-80
2022/01/04 10:32:57;;;;;;;0.20;0.20;;;;;;;6.49;100.00;98646.47;5027207;28;20041;-80
2022/01/04 10:35:32;;;;;;;0.20;0.20;;;;;;;6.45;100.00;98640.84;5040711;28;20068;-80
2022/01/04 10:38:12;;;;;;;0.20;0.20;;;;;;;6.57;100.00;98643.06;5024069;28;20436;-80
2022/01/04 10:40:47;;;;;;;0.20;0.20;;;;;;;6.50;100.00;98645.34;5024964;28;20835;-79
2022/01/04 10:43:24;;;;;;;0.20;0.20;;;;;;;6.68;100.00;98635.50;5023199;28;20057;-79
2022/01/04 10:46:02;;;;;;;0.20;0.20;;;;;;;6.59;100.00;98635.44;5025960;28;20052;-79
2022/01/04 10:48:39;;;;;;;0.30;0.30;;;;;;;6.66;100.00;98623.38;5026852;28;20071;-79
2022/01/04 10:51:14;;;;;;;0.20;0.20;;;;;;;6.70;100.00;98627.09;5024264;28;20060;-80
2022/01/04 10:53:51;;;;;;;0.20;0.20;;;;;;;6.59;100.00;98621.13;5021848;28;20049;-79
2022/01/04 10:56:27;;;;;;;0.28;0.28;;;;;;;6.63;100.00;98619.41;5021048;28;20071;-80
2022/01/04 10:58:56;;;;;;;0.20;0.20;;;;;;;6.66;100.00;98613.41;5025872;28;20059;-80
2022/01/04 11:01:39;;;;;;;0.20;0.20;;;;;;;6.56;100.00;98600.91;5024285;28;20052;-80
2022/01/04 11:04:13;;;;;;;0.30;0.30;;;;;;;6.69;100.00;98598.47;5025526;28;20052;-79
2022/01/04 11:06:47;;;;;;;0.22;0.22;;;;;;;6.80;100.00;98603.31;5024114;28;20049;-80
2022/01/04 11:09:22;;;;;;;0.30;0.30;;;;;;;6.75;100.00;98600.75;5024202;28;20076;-80
2022/01/04 11:11:50;;;;;;;0.20;0.20;;;;;;;6.73;100.00;98591.34;5026145;28;20050;-80
2022/01/04 11:14:25;;;;;;;0.20;0.20;;;;;;;6.64;100.00;98578.56;5025795;28;20666;-79
2022/01/04 11:17:01;;;;;;;0.20;0.20;;;;;;;6.68;100.00;98573.31;5023826;28;20057;-79
2022/01/04 11:19:34;;;;;;;0.30;0.30;;;;;;;6.68;100.00;98576.03;5023331;28;20057;-80
2022/01/04 11:22:08;;;;;;;0.20;0.20;;;;;;;6.62;100.00;98572.66;5026614;28;20099;-79
2022/01/04 11:24:46;;;;;;;0.20;0.20;;;;;;;6.58;100.00;98565.47;5023072;28;20061;-80
2022/01/04 11:27:20;;;;;;;0.30;0.30;;;;;;;6.60;100.00;98553.25;5024224;28;20064;-80
2022/01/04 11:29:49;;;;;;;0.20;0.20;;;;;;;6.63;100.00;98558.03;5023175;28;20045;-80
2022/01/04 11:32:22;;;;;;;0.20;0.20;;;;;;;6.73;100.00;98554.31;5024694;28;20064;-80
2022/01/04 11:35:04;;;;;;;0.20;0.20;;;;;;;6.72;100.00;98547.28;5026056;28;20053;-80
2022/01/04 11:37:41;;;;;;;0.20;0.20;;;;;;;6.77;100.00;98549.88;5023874;28;20071;-80
2022/01/04 11:40:31;;;;;;;0.20;0.20;;;;;;;6.70;100.00;98543.28;5024513;28;20056;-80
2022/01/04 11:43:05;;;;;;;0.20;0.20;;;;;;;6.59;100.00;98548.94;5029109;28;20045;-82
2022/01/04 11:45:42;;;;;;;0.20;0.20;;;;;;;6.65;100.00;98546.91;5026006;28;20046;-81
2022/01/04 11:48:30;;;;;;;0.30;0.30;;;;;;;6.44;100.00;98552.00;5024648;28;20049;-79
2022/01/04 11:51:01;;;;;;;0.30;0.30;;;;;;;6.28;100.00;98548.81;5020161;28;20870;-79
2022/01/04 11:53:35;;;;;;;0.17;0.17;;;;;;;5.90;100.00;98562.56;5021394;28;20893;-80
2022/01/04 11:56:09;;;;;;;0.22;0.22;;;;;;;5.76;100.00;98551.78;5021887;28;20048;-79
2022/01/04 11:58:45;;;;;;;0.20;0.20;;;;;;;5.71;100.00;98544.56;5024809;28;20049;-79
2022/01/04 12:01:25;;;;;;;0.20;0.20;;;;;;;5.60;100.00;98554.75;5024946;28;20064;-79
2022/01/04 12:04:00;;;;;;;0.20;0.20;;;;;;;5.58;100.00;98545.38;5023216;28;20091;-79
2022/01/04 12:06:41;;;;;;;0.20;0.20;;;;;;;5.57;100.00;98527.56;5024230;28;20575;-79
2022/01/04 12:09:27;;;;;;;0.20;0.20;;;;;;;5.62;100.00;98524.75;5019878;28;20068;-79
2022/01/04 12:12:00;;;;;;;0.20;0.20;;;;;;;5.72;100.00;98521.88;5026614;28;20523;-79
2022/01/04 12:14:30;;;;;;;0.20;0.20;;;;;;;5.79;100.00;98505.28;5020364;28;20048;-79